sensor_id;sensor_type;location;lat;lon;timestamp;P1;durP1;ratioP1;P2;durP2;ratioP2
3415;SDS011;1721;51.238;9.562;2022-07-06T17:18:21;4.20;;;0.70;;
3415;SDS011;1721;51.238;9.562;2022-07-06T17:20:47;3.70;;;0.70;;
3415;SDS011;1721;51.238;9.562;2022-07-06T17:23:12;2.10;;;0.70;;
3415;SDS011;1721;51.238;9.562;2022-07-06T17:25:38;4.60;;;0.70;;
3415;SDS011;1721;51.238;9.562;2022-07-06T17:28:05;2.20;;;0.70;;
3415;SDS011;1721;51.238;9.562;2022-07-06T17:30:32;2.10;;;0.80;;
3415;SDS011;1721;51.238;9.562;2022-07-06T17:33:01;2.42;;;0.80;;
3415;SDS011;1721;51.238;9.562;2022-07-06T17:35:27;4.20;;;0.70;;
3415;SDS011;1721;51.238;9.562;2022-07-06T17:37:54;5.00;;;1.00;;
3415;SDS011;1721;51.238;9.562;2022-07-06T17:40:20;3.97;;;0.80;;
3415;SDS011;1721;51.238;9.562;2022-07-06T17:42:48;3.35;;;0.80;;
3415;SDS011;1721;51.238;9.562;2022-07-06T17:45:14;2.50;;;0.70;;
3415;SDS011;1721;51.238;9.562;2022-07-06T17:47:40;3.47;;;0.80;;
3415;SDS011;1721;51.238;9.562;2022-07-06T17:50:06;5.20;;;0.77;;
3415;SDS011;1721;51.238;9.562;2022-07-06T17:52:32;2.25;;;0.77;;
3415;SDS011;1721;51.238;9.562;2022-07-06T17:54:57;5.20;;;0.90;;
3415;SDS011;1721;51.238;9.562;2022-07-06T17:57:23;2.65;;;0.80;;
3415;SDS011;1721;51.238;9.562;2022-07-06T17:59:48;2.50;;;0.73;;
3415;SDS011;1721;51.238;9.562;2022-07-06T18:02:14;2.20;;;0.90;;
3415;SDS011;1721;51.238;9.562;2022-07-06T18:04:39;5.53;;;0.70;;
3415;SDS011;1721;51.238;9.562;2022-07-06T18:07:05;2.60;;;0.70;;
3415;SDS011;1721;51.238;9.562;2022-07-06T18:09:30;5.05;;;0.70;;
3415;SDS011;1721;51.238;9.562;2022-07-06T18:11:56;2.78;;;0.80;;
3415;SDS011;1721;51.238;9.562;2022-07-06T18:14:21;2.60;;;0.70;;
3415;SDS011;1721;51.238;9.562;2022-07-06T18:16:47;4.28;;;0.90;;
3415;SDS011;1721;51.238;9.562;2022-07-06T18:19:12;3.45;;;0.80;;
3415;SDS011;1721;51.238;9.562;2022-07-06T18:21:38;6.85;;;0.70;;
3415;SDS011;1721;51.238;9.562;2022-07-06T18:24:04;3.00;;;0.90;;
3415;SDS011;1721;51.238;9.562;2022-07-06T18:26:30;3.05;;;0.77;;
3415;SDS011;1721;51.238;9.562;2022-07-06T18:28:56;2.45;;;0.80;;
3415;SDS011;1721;51.238;9.562;2022-07-06T18:31:21;4.15;;;0.80;;
3415;SDS011;1721;51.238;9.562;2022-07-06T18:33:47;2.00;;;0.70;;
3415;SDS011;1721;51.238;9.562;2022-07-06T18:36:13;3.37;;;1.10;;
3415;SDS011;1721;51.238;9.562;2022-07-06T18:38:38;4.37;;;0.70;;
3415;SDS011;1721;51.238;9.562;2022-07-06T18:41:04;1.97;;;0.70;;
3415;SDS011;1721;51.238;9.562;2022-07-06T18:43:30;3.53;;;0.70;;
3415;SDS011;1721;51.238;9.562;2022-07-06T18:45:56;4.60;;;0.90;;
3415;SDS011;1721;51.238;9.562;2022-07-06T18:48:21;5.90;;;0.70;;
3415;SDS011;1721;51.238;9.562;2022-07-06T18:50:47;3.43;;;0.80;;
3415;SDS011;1721;51.238;9.562;2022-07-06T18:53:13;2.70;;;0.70;;
3415;SDS011;1721;51.238;9.562;2022-07-06T18:55:40;3.20;;;0.70;;
3415;SDS011;1721;51.238;9.562;2022-07-06T18:58:07;2.95;;;0.70;;
3415;SDS011;1721;51.238;9.562;2022-07-06T19:00:33;4.55;;;0.80;;
3415;SDS011;1721;51.238;9.562;2022-07-06T19:02:58;2.50;;;0.80;;
3415;SDS011;1721;51.238;9.562;2022-07-06T19:05:24;8.30;;;1.30;;
3415;SDS011;1721;51.238;9.562;2022-07-06T19:07:50;7.60;;;1.20;;
3415;SDS011;1721;51.238;9.562;2022-07-06T19:10:15;2.90;;;0.90;;
3415;SDS011;1721;51.238;9.562;2022-07-06T19:12:41;2.97;;;0.80;;
3415;SDS011;1721;51.238;9.562;2022-07-06T19:15:07;3.40;;;0.80;;
3415;SDS011;1721;51.238;9.562;2022-07-06T19:17:32;4.43;;;0.80;;
3415;SDS011;1721;51.238;9.562;2022-07-06T19:19:59;4.10;;;0.98;;
3415;SDS011;1721;51.238;9.562;2022-07-06T19:22:25;9.53;;;1.20;;
3415;SDS011;1721;51.238;9.562;2022-07-06T19:24:50;2.00;;;0.70;;
3415;SDS011;1721;51.238;9.562;2022-07-06T19:27:16;2.80;;;0.80;;
3415;SDS011;1721;51.238;9.562;2022-07-06T19:29:41;3.80;;;0.90;;
3415;SDS011;1721;51.238;9.562;2022-07-06T19:32:07;3.70;;;1.00;;
3415;SDS011;1721;51.238;9.562;2022-07-06T19:34:33;4.10;;;0.80;;
3415;SDS011;1721;51.238;9.562;2022-07-06T19:36:58;3.72;;;0.80;;
3415;SDS011;1721;51.238;9.562;2022-07-06T19:39:24;3.58;;;0.77;;
3415;SDS011;1721;51.238;9.562;2022-07-06T19:41:50;2.10;;;0.80;;
3415;SDS011;1721;51.238;9.562;2022-07-06T19:44:16;2.50;;;0.80;;
3415;SDS011;1721;51.238;9.562;2022-07-06T19:46:41;3.72;;;0.90;;
3415;SDS011;1721;51.238;9.562;2022-07-06T19:49:08;2.92;;;0.88;;
3415;SDS011;1721;51.238;9.562;2022-07-06T19:51:34;2.13;;;0.80;;
3415;SDS011;1721;51.238;9.562;2022-07-06T19:53:59;4.40;;;0.80;;
3415;SDS011;1721;51.238;9.562;2022-07-06T19:56:25;2.23;;;0.80;;
3415;SDS011;1721;51.238;9.562;2022-07-06T19:58:50;5.93;;;0.90;;
3415;SDS011;1721;51.238;9.562;2022-07-06T20:01:16;2.70;;;0.80;;
3415;SDS011;1721;51.238;9.562;2022-07-06T20:03:42;2.70;;;0.90;;
3415;SDS011;1721;51.238;9.562;2022-07-06T20:06:08;3.70;;;0.80;;
3415;SDS011;1721;51.238;9.562;2022-07-06T20:08:34;7.47;;;1.00;;
3415;SDS011;1721;51.238;9.562;2022-07-06T20:11:00;2.92;;;1.10;;
3415;SDS011;1721;51.238;9.562;2022-07-06T20:13:25;3.43;;;0.80;;
3415;SDS011;1721;51.238;9.562;2022-07-06T20:15:52;3.60;;;0.90;;
3415;SDS011;1721;51.238;9.562;2022-07-06T20:18:17;3.50;;;0.90;;
3415;SDS011;1721;51.238;9.562;2022-07-06T20:20:43;3.43;;;0.80;;
3415;SDS011;1721;51.238;9.562;2022-07-06T20:23:08;4.60;;;0.93;;
3415;SDS011;1721;51.238;9.562;2022-07-06T20:25:34;2.33;;;0.90;;
3415;SDS011;1721;51.238;9.562;2022-07-06T20:27:59;3.27;;;0.90;;
3415;SDS011;1721;51.238;9.562;2022-07-06T20:30:25;2.47;;;0.80;;
3415;SDS011;1721;51.238;9.562;2022-07-06T20:32:51;2.60;;;0.90;;
3415;SDS011;1721;51.238;9.562;2022-07-06T20:35:17;3.40;;;0.90;;
3415;SDS011;1721;51.238;9.562;2022-07-06T20:37:42;2.60;;;0.90;;
3415;SDS011;1721;51.238;9.562;2022-07-06T20:40:08;4.10;;;0.80;;
3415;SDS011;1721;51.238;9.562;2022-07-06T20:42:34;5.50;;;1.00;;
3415;SDS011;1721;51.238;9.562;2022-07-06T20:45:00;4.57;;;0.80;;
3415;SDS011;1721;51.238;9.562;2022-07-06T20:47:25;4.40;;;1.10;;
3415;SDS011;1721;51.238;9.562;2022-07-06T20:49:51;2.60;;;1.00;;
3415;SDS011;1721;51.238;9.562;2022-07-06T20:52:16;2.80;;;0.70;;
3415;SDS011;1721;51.238;9.562;2022-07-06T20:54:42;2.50;;;0.73;;
3415;SDS011;1721;51.238;9.562;2022-07-06T20:57:08;2.22;;;0.80;;
3415;SDS011;1721;51.238;9.562;2022-07-06T20:59:33;3.80;;;1.00;;
3415;SDS011;1721;51.238;9.562;2022-07-06T21:02:02;2.30;;;0.90;;
3415;SDS011;1721;51.238;9.562;2022-07-06T21:04:28;4.18;;;0.90;;
3415;SDS011;1721;51.238;9.562;2022-07-06T21:06:53;6.10;;;0.73;;
3415;SDS011;1721;51.238;9.562;2022-07-06T21:09:19;2.58;;;0.80;;
3415;SDS011;1721;51.238;9.562;2022-07-06T21:11:45;4.00;;;0.87;;
3415;SDS011;1721;51.238;9.562;2022-07-06T21:14:11;2.38;;;0.70;;
3415;SDS011;1721;51.238;9.562;2022-07-06T21:16:37;3.20;;;1.00;;
3415;SDS011;1721;51.238;9.562;2022-07-06T21:19:02;4.43;;;1.03;;
3415;SDS011;1721;51.238;9.562;2022-07-06T21:21:28;5.00;;;0.80;;
3415;SDS011;1721;51.238;9.562;2022-07-06T21:23:54;5.70;;;1.00;;
3415;SDS011;1721;51.238;9.562;2022-07-06T21:26:20;5.03;;;0.90;;
3415;SDS011;1721;51.238;9.562;2022-07-06T21:28:46;2.80;;;0.80;;
3415;SDS011;1721;51.238;9.562;2022-07-06T21:31:11;2.70;;;0.90;;
3415;SDS011;1721;51.238;9.562;2022-07-06T21:33:37;4.97;;;0.90;;
3415;SDS011;1721;51.238;9.562;2022-07-06T21:36:03;6.30;;;0.90;;
3415;SDS011;1721;51.238;9.562;2022-07-06T21:38:29;5.72;;;1.08;;
3415;SDS011;1721;51.238;9.562;2022-07-06T21:40:55;5.47;;;1.20;;
3415;SDS011;1721;51.238;9.562;2022-07-06T21:43:21;3.80;;;1.10;;
3415;SDS011;1721;51.238;9.562;2022-07-06T21:45:46;3.63;;;1.30;;
3415;SDS011;1721;51.238;9.562;2022-07-06T21:48:12;2.80;;;1.20;;
3415;SDS011;1721;51.238;9.562;2022-07-06T21:50:37;3.20;;;1.17;;
3415;SDS011;1721;51.238;9.562;2022-07-06T21:53:03;2.80;;;1.00;;
3415;SDS011;1721;51.238;9.562;2022-07-06T21:55:29;2.80;;;1.10;;
3415;SDS011;1721;51.238;9.562;2022-07-06T21:57:54;7.20;;;1.50;;
3415;SDS011;1721;51.238;9.562;2022-07-06T22:00:21;2.83;;;1.10;;
3415;SDS011;1721;51.238;9.562;2022-07-06T22:02:46;4.50;;;1.20;;
3415;SDS011;1721;51.238;9.562;2022-07-06T22:05:12;6.27;;;1.37;;
3415;SDS011;1721;51.238;9.562;2022-07-06T22:07:38;4.63;;;1.47;;
3415;SDS011;1721;51.238;9.562;2022-07-06T22:10:03;6.77;;;1.60;;
3415;SDS011;1721;51.238;9.562;2022-07-06T22:12:30;7.00;;;1.40;;
3415;SDS011;1721;51.238;9.562;2022-07-06T22:14:55;4.50;;;1.40;;
3415;SDS011;1721;51.238;9.562;2022-07-06T22:17:21;7.30;;;1.70;;
3415;SDS011;1721;51.238;9.562;2022-07-06T22:19:46;4.25;;;1.60;;
3415;SDS011;1721;51.238;9.562;2022-07-06T22:22:12;3.53;;;1.70;;
3415;SDS011;1721;51.238;9.562;2022-07-06T22:24:37;4.65;;;1.92;;
3415;SDS011;1721;51.238;9.562;2022-07-06T22:27:03;5.45;;;1.83;;
3415;SDS011;1721;51.238;9.562;2022-07-06T22:29:29;4.70;;;1.90;;
3415;SDS011;1721;51.238;9.562;2022-07-06T22:31:55;4.68;;;2.00;;
3415;SDS011;1721;51.238;9.562;2022-07-06T22:34:20;4.82;;;2.03;;
3415;SDS011;1721;51.238;9.562;2022-07-06T22:36:46;7.65;;;2.30;;
3415;SDS011;1721;51.238;9.562;2022-07-06T22:39:12;6.72;;;2.20;;
3415;SDS011;1721;51.238;9.562;2022-07-06T22:41:37;4.40;;;2.20;;
3415;SDS011;1721;51.238;9.562;2022-07-06T22:44:03;5.57;;;2.53;;
3415;SDS011;1721;51.238;9.562;2022-07-06T22:46:29;4.57;;;2.27;;
3415;SDS011;1721;51.238;9.562;2022-07-06T22:48:55;4.90;;;2.00;;
3415;SDS011;1721;51.238;9.562;2022-07-06T22:51:22;4.50;;;2.45;;
3415;SDS011;1721;51.238;9.562;2022-07-06T22:53:48;4.88;;;2.63;;
3415;SDS011;1721;51.238;9.562;2022-07-06T22:56:14;7.33;;;2.40;;
3415;SDS011;1721;51.238;9.562;2022-07-06T22:58:40;6.90;;;2.40;;
3415;SDS011;1721;51.238;9.562;2022-07-06T23:01:09;5.40;;;2.35;;
3415;SDS011;1721;51.238;9.562;2022-07-06T23:03:36;6.97;;;2.80;;
3415;SDS011;1721;51.238;9.562;2022-07-06T23:06:02;6.93;;;3.30;;
3415;SDS011;1721;51.238;9.562;2022-07-06T23:08:27;5.88;;;3.08;;
3415;SDS011;1721;51.238;9.562;2022-07-06T23:10:53;6.40;;;3.10;;
3415;SDS011;1721;51.238;9.562;2022-07-06T23:13:19;5.70;;;2.90;;
3415;SDS011;1721;51.238;9.562;2022-07-06T23:15:45;6.32;;;3.40;;
3415;SDS011;1721;51.238;9.562;2022-07-06T23:18:10;8.20;;;3.30;;
3415;SDS011;1721;51.238;9.562;2022-07-06T23:20:36;5.40;;;3.20;;
3415;SDS011;1721;51.238;9.562;2022-07-06T23:23:01;7.20;;;3.55;;
3415;SDS011;1721;51.238;9.562;2022-07-06T23:25:27;10.13;;;3.60;;
3415;SDS011;1721;51.238;9.562;2022-07-06T23:27:52;9.88;;;3.58;;
3415;SDS011;1721;51.238;9.562;2022-07-06T23:30:18;7.30;;;3.83;;
3415;SDS011;1721;51.238;9.562;2022-07-06T23:32:44;9.50;;;4.10;;
3415;SDS011;1721;51.238;9.562;2022-07-06T23:35:10;6.50;;;3.83;;
3415;SDS011;1721;51.238;9.562;2022-07-06T23:37:36;7.68;;;3.83;;
3415;SDS011;1721;51.238;9.562;2022-07-06T23:40:02;7.18;;;3.38;;
3415;SDS011;1721;51.238;9.562;2022-07-06T23:42:29;9.65;;;4.18;;
3415;SDS011;1721;51.238;9.562;2022-07-06T23:44:55;7.32;;;4.07;;
3415;SDS011;1721;51.238;9.562;2022-07-06T23:47:20;10.02;;;4.10;;
3415;SDS011;1721;51.238;9.562;2022-07-06T23:49:46;7.23;;;4.20;;
3415;SDS011;1721;51.238;9.562;2022-07-06T23:52:12;6.47;;;4.20;;
3415;SDS011;1721;51.238;9.562;2022-07-06T23:54:38;7.03;;;3.92;;
3415;SDS011;1721;51.238;9.562;2022-07-06T23:57:03;6.35;;;4.00;;
3415;SDS011;1721;51.238;9.562;2022-07-06T23:59:29;7.80;;;3.80;;
